createdAt,value
2019-02-24T00:01:29.657Z,32.30
2019-02-24T00:03:58.074Z,33.28
2019-02-24T00:06:26.451Z,36.95
2019-02-24T00:08:54.864Z,37.55
2019-02-24T00:11:23.306Z,36.58
2019-02-24T00:13:51.688Z,38.00
2019-02-24T00:16:20.096Z,37.58
2019-02-24T00:18:50.550Z,42.62
2019-02-24T00:21:18.949Z,45.28
2019-02-24T00:23:47.515Z,33.98
2019-02-24T00:26:15.941Z,37.48
2019-02-24T00:28:44.345Z,42.25
2019-02-24T00:31:12.740Z,41.58
2019-02-24T00:33:41.202Z,38.05
2019-02-24T00:36:09.610Z,37.78
2019-02-24T00:38:38.013Z,37.08
2019-02-24T00:41:06.427Z,39.73
2019-02-24T00:43:35.833Z,34.33
2019-02-24T00:46:04.540Z,35.00
2019-02-24T00:48:32.993Z,36.42
2019-02-24T00:51:01.351Z,31.93
2019-02-24T00:53:29.782Z,35.52
2019-02-24T00:55:58.230Z,39.58
2019-02-24T00:58:28.597Z,31.55
2019-02-24T01:00:58.010Z,34.70
2019-02-24T01:03:26.459Z,36.53
2019-02-24T01:05:54.908Z,34.30
2019-02-24T01:08:25.264Z,34.27
2019-02-24T01:10:53.723Z,37.33
2019-02-24T01:13:22.136Z,37.65
2019-02-24T01:15:50.592Z,35.65
2019-02-24T01:18:19.004Z,34.90
2019-02-24T01:20:47.398Z,34.25
2019-02-24T01:23:15.800Z,38.60
2019-02-24T01:25:44.198Z,34.80
2019-02-24T01:28:12.655Z,36.45
2019-02-24T01:30:41.033Z,32.38
2019-02-24T01:33:09.470Z,33.28
2019-02-24T01:35:37.890Z,34.92
2019-02-24T01:38:06.317Z,32.03
2019-02-24T01:40:34.736Z,36.38
2019-02-24T01:43:03.170Z,32.50
2019-02-24T01:45:31.606Z,33.98
2019-02-24T01:48:00.051Z,35.85
2019-02-24T01:50:28.621Z,34.53
2019-02-24T01:52:57.039Z,32.10
2019-02-24T01:55:27.355Z,31.95
2019-02-24T01:57:55.804Z,32.38
2019-02-24T02:00:25.448Z,33.98
2019-02-24T02:02:54.762Z,35.55
2019-02-24T02:05:24.207Z,31.62
2019-02-24T02:07:52.587Z,31.57
2019-02-24T02:10:21.017Z,33.15
2019-02-24T02:12:49.443Z,31.90
2019-02-24T02:15:17.850Z,30.65
2019-02-24T02:17:46.219Z,31.93
2019-02-24T02:20:14.708Z,34.38
2019-02-24T02:22:43.085Z,35.43
2019-02-24T02:25:11.504Z,30.82
2019-02-24T02:27:40.350Z,37.20
2019-02-24T02:30:10.697Z,35.45
2019-02-24T02:32:44.243Z,32.75
2019-02-24T02:35:12.640Z,37.53
2019-02-24T02:37:41.032Z,36.10
2019-02-24T02:40:09.429Z,36.53
2019-02-24T02:42:37.825Z,38.42
2019-02-24T02:45:08.194Z,37.23
2019-02-24T02:47:36.593Z,42.70
2019-02-24T02:50:06.235Z,42.20
2019-02-24T02:52:34.677Z,41.20
2019-02-24T02:55:05.741Z,43.78
2019-02-24T02:57:34.143Z,41.37
2019-02-24T03:00:03.111Z,48.48
2019-02-24T03:02:31.509Z,43.25
2019-02-24T03:04:59.889Z,51.42
2019-02-24T03:07:30.008Z,44.83
2019-02-24T03:09:58.393Z,49.18
2019-02-24T03:12:26.827Z,42.73
2019-02-24T03:14:55.269Z,43.63
2019-02-24T03:17:24.361Z,47.65
2019-02-24T03:19:53.720Z,45.45
2019-02-24T03:22:22.125Z,44.10
2019-02-24T03:24:50.529Z,50.63
2019-02-24T03:27:19.239Z,42.17
2019-02-24T03:29:47.678Z,44.85
2019-02-24T03:32:16.083Z,42.33
2019-02-24T03:34:45.943Z,42.08
2019-02-24T03:37:14.397Z,46.40
2019-02-24T03:39:42.812Z,44.27
2019-02-24T03:42:11.257Z,43.33
2019-02-24T03:44:39.697Z,43.02
2019-02-24T03:47:08.080Z,46.13
2019-02-24T03:49:36.473Z,43.48
2019-02-24T03:52:04.897Z,41.40
2019-02-24T03:54:33.326Z,46.90
2019-02-24T03:57:01.743Z,46.42
2019-02-24T03:59:30.239Z,38.80
2019-02-24T04:01:58.689Z,42.15
2019-02-24T04:04:27.144Z,39.27
2019-02-24T04:07:05.371Z,42.50
2019-02-24T04:09:33.785Z,46.18
2019-02-24T04:12:02.249Z,43.52
2019-02-24T04:14:32.604Z,45.03
2019-02-24T04:17:01.034Z,45.43
2019-02-24T04:19:29.447Z,45.00
2019-02-24T04:21:57.828Z,39.33
2019-02-24T04:24:26.249Z,39.58
2019-02-24T04:26:54.653Z,38.20
2019-02-24T04:29:25.191Z,44.75
2019-02-24T04:31:55.157Z,41.48
2019-02-24T04:34:23.654Z,43.20
2019-02-24T04:36:52.058Z,42.40
2019-02-24T04:39:20.487Z,43.75
2019-02-24T04:41:48.866Z,36.63
2019-02-24T04:44:17.270Z,38.98
2019-02-24T04:46:46.953Z,49.38
2019-02-24T04:49:16.303Z,43.78
2019-02-24T04:51:45.102Z,44.45
2019-02-24T04:54:13.509Z,45.30
2019-02-24T04:56:41.978Z,44.13
2019-02-24T04:59:10.431Z,43.92
2019-02-24T05:01:38.828Z,40.60
2019-02-24T05:04:07.227Z,49.60
2019-02-24T05:06:35.635Z,45.10
2019-02-24T05:09:04.308Z,45.23
2019-02-24T05:11:32.710Z,45.45
2019-02-24T05:14:01.087Z,43.23
2019-02-24T05:16:29.907Z,44.60
2019-02-24T05:18:58.287Z,41.45
2019-02-24T05:21:26.696Z,43.52
2019-02-24T05:23:55.118Z,47.45
2019-02-24T05:26:23.500Z,45.75
2019-02-24T05:28:51.895Z,40.90
2019-02-24T05:31:20.303Z,45.80
2019-02-24T05:33:48.705Z,44.00
2019-02-24T05:36:17.109Z,45.38
2019-02-24T05:38:45.527Z,43.42
2019-02-24T05:41:14.044Z,45.43
2019-02-24T05:43:42.451Z,45.63
2019-02-24T05:46:10.903Z,45.08
2019-02-24T05:48:45.046Z,40.73
2019-02-24T05:51:13.434Z,43.75
2019-02-24T05:53:41.849Z,45.85
2019-02-24T05:56:10.254Z,44.95
2019-02-24T05:58:38.701Z,45.35
2019-02-24T06:01:07.392Z,42.80
2019-02-24T06:03:35.785Z,45.28
2019-02-24T06:06:04.214Z,48.17
2019-02-24T06:08:33.664Z,48.45
2019-02-24T06:11:02.172Z,45.10
2019-02-24T06:13:30.560Z,53.23
2019-02-24T06:15:58.957Z,45.23
2019-02-24T06:18:27.363Z,49.85
2019-02-24T06:20:55.807Z,45.25
2019-02-24T06:23:24.495Z,44.42
2019-02-24T06:25:53.188Z,48.00
2019-02-24T06:28:21.897Z,48.50
2019-02-24T06:30:50.348Z,51.28
2019-02-24T06:33:18.753Z,48.02
2019-02-24T06:35:47.137Z,46.68
2019-02-24T06:38:15.570Z,49.70
2019-02-24T06:40:44.898Z,43.45
2019-02-24T06:43:13.517Z,50.35
2019-02-24T06:45:41.919Z,46.68
2019-02-24T06:48:10.317Z,52.48
2019-02-24T06:50:55.275Z,47.35
2019-02-24T06:53:23.705Z,49.60
2019-02-24T06:55:52.391Z,47.20
2019-02-24T06:58:20.804Z,44.73
2019-02-24T07:00:49.190Z,49.67
2019-02-24T07:03:17.574Z,44.95
2019-02-24T07:05:46.067Z,46.15
2019-02-24T07:08:14.553Z,49.18
2019-02-24T07:10:42.977Z,43.90
2019-02-24T07:13:11.360Z,51.25
2019-02-24T07:15:39.778Z,46.50
2019-02-24T07:18:08.170Z,47.83
2019-02-24T07:20:38.607Z,47.40
2019-02-24T07:23:09.011Z,46.30
2019-02-24T07:25:40.682Z,48.45
2019-02-24T07:28:10.102Z,41.33
2019-02-24T07:30:38.511Z,43.63
2019-02-24T07:33:06.978Z,48.85
2019-02-24T07:35:35.400Z,44.00
2019-02-24T07:38:04.796Z,43.85
2019-02-24T07:40:33.218Z,48.15
2019-02-24T07:43:02.594Z,45.60
2019-02-24T07:45:31.011Z,44.93
2019-02-24T07:47:59.408Z,43.90
2019-02-24T07:50:28.214Z,41.50
2019-02-24T07:52:56.525Z,43.30
2019-02-24T07:55:24.960Z,46.08
2019-02-24T07:57:53.365Z,39.18
2019-02-24T08:00:21.756Z,39.03
2019-02-24T08:02:50.168Z,41.40
2019-02-24T08:05:18.608Z,39.38
2019-02-24T08:07:47.026Z,43.38
2019-02-24T08:10:15.418Z,43.50
2019-02-24T08:12:43.851Z,40.88
2019-02-24T08:15:12.257Z,37.48
2019-02-24T08:17:40.656Z,36.58
2019-02-24T08:20:10.088Z,41.35
2019-02-24T08:22:40.405Z,41.35
2019-02-24T08:25:08.795Z,38.78
2019-02-24T08:27:37.192Z,36.38
2019-02-24T08:30:09.812Z,35.00
2019-02-24T08:32:40.227Z,34.48
2019-02-24T08:35:09.092Z,35.95
2019-02-24T08:37:38.623Z,34.58
2019-02-24T08:40:08.347Z,37.42
2019-02-24T08:42:37.066Z,36.05
2019-02-24T08:45:08.688Z,39.38
2019-02-24T08:47:37.115Z,39.53
2019-02-24T08:50:08.991Z,37.28
2019-02-24T08:52:37.411Z,35.45
2019-02-24T08:55:12.651Z,34.60
2019-02-24T08:57:41.995Z,33.10
2019-02-24T09:00:13.019Z,33.83
2019-02-24T09:02:41.839Z,34.75
2019-02-24T09:05:10.276Z,35.23
2019-02-24T09:07:38.708Z,31.57
2019-02-24T09:10:09.074Z,33.23
2019-02-24T09:12:37.770Z,37.83
2019-02-24T09:15:11.410Z,35.73
2019-02-24T09:17:39.832Z,30.97
2019-02-24T09:20:10.965Z,31.50
2019-02-24T09:22:39.420Z,34.30
2019-02-24T09:25:08.403Z,31.20
2019-02-24T09:27:36.800Z,31.73
2019-02-24T09:30:09.552Z,31.05
2019-02-24T09:32:37.978Z,30.12
2019-02-24T09:35:07.733Z,31.70
2019-02-24T09:37:36.395Z,33.63
2019-02-24T09:40:08.139Z,29.85
2019-02-24T09:42:36.569Z,30.52
2019-02-24T09:45:07.582Z,33.20
2019-02-24T09:47:35.996Z,28.83
2019-02-24T09:50:06.543Z,30.80
2019-02-24T09:52:35.307Z,30.77
2019-02-24T09:55:04.398Z,31.17
2019-02-24T09:57:32.800Z,69.00
2019-02-24T10:00:01.567Z,31.62
2019-02-24T10:02:30.054Z,31.85
2019-02-24T10:04:58.486Z,27.70
2019-02-24T10:07:26.867Z,28.27
2019-02-24T10:09:55.575Z,30.45
2019-02-24T10:12:23.962Z,27.50
2019-02-24T10:14:52.347Z,29.60
2019-02-24T10:17:20.777Z,31.10
2019-02-24T10:19:49.194Z,28.12
2019-02-24T10:22:17.625Z,31.37
2019-02-24T10:24:46.008Z,35.68
2019-02-24T10:27:14.445Z,30.85
2019-02-24T10:29:42.942Z,31.40
2019-02-24T10:32:11.833Z,35.28
2019-02-24T10:34:40.302Z,29.90
2019-02-24T10:37:08.748Z,33.02
2019-02-24T10:39:38.215Z,30.80
2019-02-24T10:42:06.647Z,30.60
2019-02-24T10:44:36.043Z,31.30
2019-02-24T10:47:04.619Z,28.62
2019-02-24T10:49:33.018Z,28.25
2019-02-24T10:52:01.443Z,26.82
2019-02-24T10:54:29.956Z,27.95
2019-02-24T10:56:58.390Z,29.27
2019-02-24T10:59:35.108Z,29.35
2019-02-24T11:02:03.546Z,31.48
2019-02-24T11:04:31.989Z,26.48
2019-02-24T11:07:03.296Z,30.40
2019-02-24T11:09:38.612Z,26.93
2019-02-24T11:12:08.852Z,29.27
2019-02-24T11:14:37.184Z,28.47
2019-02-24T11:17:05.588Z,32.98
2019-02-24T11:19:34.005Z,32.40
2019-02-24T11:22:02.374Z,32.83
2019-02-24T11:24:30.856Z,31.62
2019-02-24T11:26:59.289Z,27.45
2019-02-24T11:29:28.713Z,31.12
2019-02-24T11:31:58.088Z,29.75
2019-02-24T11:34:26.501Z,32.35
2019-02-24T11:36:54.965Z,30.35
2019-02-24T11:39:25.289Z,29.05
2019-02-24T11:41:53.748Z,28.05
2019-02-24T11:44:23.874Z,30.32
2019-02-24T11:46:52.256Z,28.55
2019-02-24T11:49:20.664Z,30.23
2019-02-24T11:51:49.071Z,34.33
2019-02-24T11:54:17.460Z,29.57
2019-02-24T11:56:45.918Z,31.23
2019-02-24T11:59:15.246Z,32.45
2019-02-24T12:01:47.583Z,32.42
2019-02-24T12:04:17.632Z,31.52
2019-02-24T12:06:46.130Z,30.80
2019-02-24T12:09:15.257Z,35.75
2019-02-24T12:11:45.023Z,30.23
2019-02-24T12:14:13.418Z,33.38
2019-02-24T12:16:45.194Z,33.20
2019-02-24T12:19:13.604Z,31.17
2019-02-24T12:21:42.948Z,35.30
2019-02-24T12:24:11.396Z,34.25
2019-02-24T12:26:39.899Z,54.35
2019-02-24T12:29:09.194Z,42.03
2019-02-24T12:31:37.597Z,35.98
2019-02-24T12:34:06.076Z,31.70
2019-02-24T12:36:34.514Z,33.33
2019-02-24T12:39:03.772Z,29.92
2019-02-24T12:41:32.277Z,28.77
2019-02-24T12:44:00.672Z,34.80
2019-02-24T12:46:29.251Z,30.65
2019-02-24T12:48:57.610Z,33.18
2019-02-24T12:51:26.067Z,32.83
2019-02-24T12:53:54.448Z,34.13
2019-02-24T12:56:22.871Z,41.45
2019-02-24T12:58:51.263Z,35.75
2019-02-24T13:01:19.644Z,35.95
2019-02-24T13:03:48.101Z,33.08
2019-02-24T13:06:17.442Z,34.48
2019-02-24T13:08:46.104Z,38.00
2019-02-24T13:11:14.488Z,34.83
2019-02-24T13:13:42.874Z,38.40
2019-02-24T13:16:11.290Z,36.00
2019-02-24T13:18:39.715Z,35.68
2019-02-24T13:21:09.083Z,37.38
2019-02-24T13:23:41.173Z,36.38
2019-02-24T13:26:09.573Z,40.58
2019-02-24T13:28:37.990Z,35.70
2019-02-24T13:31:06.421Z,38.28
2019-02-24T13:33:34.824Z,35.58
2019-02-24T13:36:03.488Z,35.15
2019-02-24T13:38:31.918Z,35.68
2019-02-24T13:41:06.980Z,41.33
2019-02-24T13:43:36.905Z,36.40
2019-02-24T13:46:05.291Z,39.33
2019-02-24T13:48:33.757Z,38.25
2019-02-24T13:51:02.219Z,39.23
2019-02-24T13:53:30.629Z,35.88
2019-02-24T13:55:59.027Z,41.18
2019-02-24T13:58:27.534Z,41.15
2019-02-24T14:00:55.912Z,37.25
2019-02-24T14:03:25.328Z,39.78
2019-02-24T14:05:53.732Z,41.10
2019-02-24T14:08:22.956Z,41.83
2019-02-24T14:10:55.095Z,38.55
2019-02-24T14:13:23.543Z,39.60
2019-02-24T14:15:51.953Z,42.30
2019-02-24T14:18:20.387Z,39.55
2019-02-24T14:20:48.808Z,42.75
2019-02-24T14:23:18.118Z,41.53
2019-02-24T14:25:50.317Z,55.43
2019-02-24T14:28:18.777Z,43.63
2019-02-24T14:30:47.460Z,38.38
2019-02-24T14:33:15.888Z,42.25
2019-02-24T14:35:44.269Z,62.17
2019-02-24T14:38:13.643Z,39.75
2019-02-24T14:40:42.483Z,35.00
2019-02-24T14:43:10.884Z,41.42
2019-02-24T14:45:39.287Z,35.17
2019-02-24T14:48:07.754Z,34.15
2019-02-24T14:50:36.248Z,38.38
2019-02-24T14:53:07.921Z,44.67
2019-02-24T14:55:36.336Z,37.85
2019-02-24T14:58:06.105Z,36.55
2019-02-24T15:00:40.464Z,33.85
2019-02-24T15:03:08.833Z,35.05
2019-02-24T15:05:37.312Z,38.98
2019-02-24T15:08:05.737Z,35.10
2019-02-24T15:10:39.924Z,36.73
2019-02-24T15:13:08.370Z,44.55
2019-02-24T15:15:38.252Z,38.40
2019-02-24T15:18:07.107Z,33.53
2019-02-24T15:20:35.493Z,34.80
2019-02-24T15:23:03.882Z,33.80
2019-02-24T15:25:33.308Z,37.40
2019-02-24T15:28:02.148Z,34.45
2019-02-24T15:30:38.307Z,34.70
2019-02-24T15:33:06.836Z,36.85
2019-02-24T15:35:35.287Z,37.88
2019-02-24T15:38:03.698Z,37.88
2019-02-24T15:40:32.193Z,44.95
2019-02-24T15:43:01.545Z,40.00
2019-02-24T15:45:30.043Z,41.60
2019-02-24T15:47:58.409Z,46.53
2019-02-24T15:50:27.787Z,44.73
2019-02-24T15:52:56.214Z,43.68
2019-02-24T15:55:24.678Z,49.38
2019-02-24T15:57:55.014Z,44.20
2019-02-24T16:00:24.530Z,51.53
2019-02-24T16:03:01.144Z,48.20
2019-02-24T16:05:23.950Z,48.50
2019-02-24T16:07:52.349Z,48.92
2019-02-24T16:10:21.830Z,50.45
2019-02-24T16:12:50.225Z,48.35
2019-02-24T16:15:20.688Z,52.78
2019-02-24T16:17:49.139Z,46.90
2019-02-24T16:20:26.038Z,53.78
2019-02-24T16:22:54.464Z,49.27
2019-02-24T16:25:22.851Z,46.58
2019-02-24T16:27:52.373Z,52.20
2019-02-24T16:30:20.830Z,51.28
2019-02-24T16:32:49.200Z,54.95
2019-02-24T16:35:18.148Z,54.00
2019-02-24T16:37:46.583Z,51.55
2019-02-24T16:40:17.592Z,57.78
2019-02-24T16:42:46.026Z,54.53
2019-02-24T16:45:16.310Z,60.17
2019-02-24T16:47:45.070Z,52.70
2019-02-24T16:50:17.573Z,57.17
2019-02-24T16:55:17.382Z,52.40
2019-02-24T16:57:45.822Z,53.42
2019-02-24T17:00:19.968Z,53.13
2019-02-24T17:02:48.382Z,51.65
2019-02-24T17:05:16.876Z,56.53
2019-02-24T17:07:45.312Z,47.70
2019-02-24T17:10:19.487Z,50.78
2019-02-24T17:12:47.900Z,53.63
2019-02-24T17:15:16.300Z,55.85
2019-02-24T17:17:44.678Z,64.42
2019-02-24T17:20:21.457Z,53.35
2019-02-24T17:22:49.838Z,57.40
2019-02-24T17:25:18.217Z,56.42
2019-02-24T17:27:46.654Z,61.65
2019-02-24T17:30:16.380Z,57.90
2019-02-24T17:32:46.091Z,56.90
2019-02-24T17:35:14.485Z,56.75
2019-02-24T17:37:42.919Z,59.42
2019-02-24T17:40:19.608Z,61.10
2019-02-24T17:42:52.742Z,60.80
2019-02-24T17:45:21.072Z,65.03
2019-02-24T17:47:49.495Z,60.00
2019-02-24T17:50:18.225Z,62.38
2019-02-24T17:52:46.633Z,69.47
2019-02-24T17:55:19.246Z,64.03
2019-02-24T17:57:47.659Z,67.22
2019-02-24T18:00:26.885Z,63.68
2019-02-24T18:02:56.573Z,64.60
2019-02-24T18:05:24.968Z,63.42
2019-02-24T18:07:55.351Z,64.90
2019-02-24T18:10:24.699Z,71.95
2019-02-24T18:12:53.075Z,59.42
2019-02-24T18:15:21.515Z,61.30
2019-02-24T18:17:49.997Z,62.43
2019-02-24T18:20:19.968Z,66.02
2019-02-24T18:22:48.440Z,69.70
2019-02-24T18:25:16.872Z,73.30
2019-02-24T18:27:45.375Z,68.90
2019-02-24T18:30:26.914Z,65.87
2019-02-24T18:32:55.618Z,67.90
2019-02-24T18:35:24.011Z,64.42
2019-02-24T18:37:52.434Z,74.47
2019-02-24T18:40:20.814Z,66.45
2019-02-24T18:42:49.210Z,66.07
2019-02-24T18:45:17.645Z,69.37
2019-02-24T18:47:46.102Z,67.35
2019-02-24T18:50:16.016Z,68.15
2019-02-24T18:52:44.445Z,63.73
2019-02-24T18:55:13.381Z,67.53
2019-02-24T18:57:41.762Z,70.97
2019-02-24T19:00:16.061Z,57.23
2019-02-24T19:02:44.929Z,63.15
2019-02-24T19:05:13.326Z,65.50
2019-02-24T19:07:41.746Z,59.98
2019-02-24T19:10:15.983Z,61.08
2019-02-24T19:12:44.748Z,64.15
2019-02-24T19:15:17.835Z,67.32
2019-02-24T19:17:46.336Z,62.45
2019-02-24T19:20:19.868Z,65.50
2019-02-24T19:22:48.260Z,64.97
2019-02-24T19:25:16.751Z,68.12
2019-02-24T19:27:45.159Z,66.82
2019-02-24T19:30:16.830Z,65.20
2019-02-24T19:32:45.238Z,64.17
2019-02-24T19:35:14.923Z,71.97
2019-02-24T19:37:43.345Z,72.65
2019-02-24T19:40:21.506Z,67.67
2019-02-24T19:42:49.890Z,68.30
2019-02-24T19:45:19.709Z,68.47
2019-02-24T19:47:48.218Z,68.83
2019-02-24T19:50:19.396Z,69.60
2019-02-24T19:52:47.811Z,70.10
2019-02-24T19:55:19.237Z,76.05
2019-02-24T19:57:47.709Z,71.80
2019-02-24T20:00:21.612Z,66.87
2019-02-24T20:02:50.064Z,66.42
2019-02-24T20:05:19.328Z,70.95
2019-02-24T20:07:47.974Z,61.75
2019-02-24T20:10:27.524Z,63.63
2019-02-24T20:12:55.931Z,69.35
2019-02-24T20:15:32.308Z,61.90
2019-02-24T20:18:01.100Z,63.78
2019-02-24T20:20:29.486Z,60.75
2019-02-24T20:22:57.903Z,62.23
2019-02-24T20:25:26.328Z,69.72
2019-02-24T20:27:54.732Z,63.65
2019-02-24T20:30:26.430Z,67.82
2019-02-24T20:32:54.809Z,64.47
2019-02-24T20:35:23.212Z,68.15
2019-02-24T20:37:51.606Z,66.20
2019-02-24T20:40:19.994Z,65.45
2019-02-24T20:42:48.420Z,63.73
2019-02-24T20:45:22.033Z,67.15
2019-02-24T20:47:50.466Z,62.25
2019-02-24T20:50:24.263Z,64.55
2019-02-24T20:52:52.647Z,65.62
2019-02-24T20:55:21.075Z,58.78
2019-02-24T20:57:49.454Z,60.98
2019-02-24T21:00:21.174Z,61.77
2019-02-24T21:02:49.914Z,61.83
2019-02-24T21:05:18.281Z,57.80
2019-02-24T21:07:46.684Z,56.25
2019-02-24T21:10:15.108Z,54.45
2019-02-24T21:12:43.530Z,59.45
2019-02-24T21:15:15.169Z,56.18
2019-02-24T21:17:43.587Z,50.00
2019-02-24T21:20:15.147Z,58.90
2019-02-24T21:22:43.524Z,56.50
2019-02-24T21:25:12.418Z,57.10
2019-02-24T21:27:40.859Z,55.17
2019-02-24T21:30:12.164Z,58.08
2019-02-24T21:32:40.566Z,57.80
2019-02-24T21:35:10.964Z,55.65
2019-02-24T21:37:39.350Z,58.35
2019-02-24T21:40:13.223Z,57.20
2019-02-24T21:42:41.602Z,58.02
2019-02-24T21:45:16.025Z,57.35
2019-02-24T21:47:44.886Z,60.05
2019-02-24T21:50:16.931Z,57.15
2019-02-24T21:52:45.397Z,63.38
2019-02-24T21:55:13.894Z,62.50
2019-02-24T21:57:42.662Z,58.95
2019-02-24T22:00:25.547Z,60.10
2019-02-24T22:02:53.943Z,59.13
2019-02-24T22:05:22.379Z,57.35
2019-02-24T22:07:50.806Z,60.88
2019-02-24T22:10:19.207Z,64.75
2019-02-24T22:12:47.604Z,60.60
2019-02-24T22:15:18.066Z,61.60
2019-02-24T22:17:47.469Z,56.13
2019-02-24T22:20:15.945Z,62.55
2019-02-24T22:22:44.670Z,55.85
2019-02-24T22:25:14.616Z,60.83
2019-02-24T22:27:43.065Z,56.28
2019-02-24T22:30:17.666Z,61.90
2019-02-24T22:32:46.060Z,54.48
2019-02-24T22:35:15.556Z,62.65
2019-02-24T22:37:43.999Z,60.33
2019-02-24T22:40:13.566Z,55.80
2019-02-24T22:42:50.005Z,51.45
2019-02-24T22:45:20.011Z,58.58
2019-02-24T22:47:48.381Z,57.80
2019-02-24T22:50:17.786Z,56.08
2019-02-24T22:52:46.570Z,59.20
2019-02-24T22:55:15.909Z,52.05
2019-02-24T22:57:44.368Z,56.85
2019-02-24T23:00:53.059Z,56.02
2019-02-24T23:03:23.586Z,55.35
2019-02-24T23:05:51.969Z,59.23
2019-02-24T23:08:20.414Z,60.00
2019-02-24T23:10:48.862Z,56.20
2019-02-24T23:13:17.654Z,64.77
2019-02-24T23:15:46.152Z,61.65
2019-02-24T23:18:14.548Z,59.38
2019-02-24T23:20:42.996Z,59.58
2019-02-24T23:23:11.812Z,59.10
2019-02-24T23:25:48.893Z,58.25
2019-02-24T23:28:17.274Z,61.05
2019-02-24T23:30:46.595Z,55.52
2019-02-24T23:33:15.008Z,66.62
2019-02-24T23:35:43.414Z,60.43
2019-02-24T23:38:11.856Z,60.92
2019-02-24T23:40:40.293Z,59.33
2019-02-24T23:43:08.740Z,59.50
2019-02-24T23:45:37.125Z,63.40
2019-02-24T23:48:05.543Z,65.97
2019-02-24T23:50:33.983Z,62.17
2019-02-24T23:53:02.364Z,60.48
2019-02-24T23:55:30.831Z,60.73
2019-02-24T23:57:59.234Z,57.27
